Irasburg, Vermont
Current Conditions -  °F | °C
As of 9:35 AM on Friday 31 Oct 2014 (Local Time) from KEFK Reporting Station
Clear Clear  
Wind Chill: 40°   Ceiling: Unl
Heat Index: 40°   Visibility: 10mi
Dew Point: 32°   Wind: 3mph
Humidity: 74%   Direction: 110°ESE
Pressure: 30.05"   Gusts: NA
Location:  44.8°N, 72.28°W
Report Text: KEFK 311335Z AUTO 11003KT 10SM CLR 04/00 A3005 RMK AO2 T00421001
Loading
Personal Weather Stations






























Interactive Weather Map
Tropical Storm Tracking
New forecast layout! Learn more

10-Day Weather Forecast

Advertisements
Track Severe Weather on mobile